< Typhoon 200921 2009 Season Typhoon 201001 >
Typhoon 200922 (NIDA)
General InformationTrack Information on Google MapsDetailed Wind InformationAccess Analytics MapList of All Images || NewsDisaster Info.WeblogTrackbackTyphoon FrontTwiphoonTyphoon ImaginationResourceGoogle EarthGE AnimationAtom FeedGeoJSON
Detalied Best Track (Time Zone = UTC)
Year Month Day Hour Lat. Long. Pressure (hPa) Wind (kt) Class Image Chart
2009 11 21 18 6.7 148.3 1002 0 2 Image Chart
2009 11 22 00 6.9 148.2 1004 0 2 Image Chart
2009 11 22 06 7.2 148.1 1000 0 2 Image Chart
2009 11 22 12 7.4 148.0 1002 0 2 Image Chart
2009 11 22 18 7.6 148.0 1002 0 2 Image Chart
2009 11 23 00 7.8 148.0 1002 0 2 Image Chart
2009 11 23 06 8.2 147.6 1002 0 2 Image Chart
2009 11 23 12 8.5 147.1 1000 35 3 Image Chart
2009 11 23 18 8.7 146.3 996 45 3 Image Chart
2009 11 24 00 8.8 145.8 992 50 4 Image Chart
2009 11 24 06 8.9 145.5 980 65 5 Image Chart
2009 11 24 12 9.3 145.0 975 70 5 Image Chart
2009 11 24 18 9.9 144.3 960 80 5 Image Chart
2009 11 25 00 10.7 143.8 950 85 5 Image Chart
2009 11 25 06 11.6 143.0 940 95 5 Image Chart
2009 11 25 12 12.6 142.2 925 105 5 Image Chart
2009 11 25 18 13.6 141.4 905 115 5 Image Chart
2009 11 26 00 14.5 140.7 905 115 5 Image Chart
2009 11 26 06 15.2 140.0 905 110 5 Image Chart
2009 11 26 12 15.8 139.7 915 105 5 Image Chart
2009 11 26 18 16.3 139.3 915 105 5 Image Chart
2009 11 27 00 16.9 139.2 925 100 5 Image Chart
2009 11 27 06 17.8 139.2 925 100 5 Image Chart
2009 11 27 12 18.3 139.0 925 100 5 Image Chart
2009 11 27 18 18.7 139.0 925 100 5 Image Chart
2009 11 28 00 19.0 139.0 925 100 5 Image Chart
2009 11 28 06 19.1 139.2 925 100 5 Image Chart
2009 11 28 12 19.1 139.3 930 95 5 Image Chart
2009 11 28 18 19.1 139.5 930 95 5 Image Chart
2009 11 29 00 19.3 139.4 945 85 5 Image Chart
2009 11 29 06 19.5 139.4 945 85 5 Image Chart
2009 11 29 12 19.5 139.2 945 85 5 Image Chart
2009 11 29 18 19.6 139.5 945 85 5 Image Chart
2009 11 30 00 19.6 139.3 945 85 5 Image Chart
2009 11 30 06 19.8 139.1 945 85 5 Image Chart
2009 11 30 12 20.0 138.8 955 80 5 Image Chart
2009 11 30 18 20.1 138.5 955 80 5 Image Chart
2009 12 1 00 20.3 138.2 955 80 5 Image Chart
2009 12 1 06 20.6 137.7 965 70 5 Image Chart
2009 12 1 12 20.6 137.3 970 65 5 Image Chart
2009 12 1 18 20.7 136.9 980 60 4 Image Chart
2009 12 2 00 20.8 136.1 980 60 4 Image Chart
2009 12 2 06 20.9 135.6 985 50 4 Image Chart
2009 12 2 12 21.1 135.1 990 45 3 Image Chart
2009 12 2 18 21.5 134.6 994 40 3 Image Chart
2009 12 3 00 21.7 134.2 1000 0 2 Image Chart
2009 12 3 06 22.4 134.5 1002 0 2 Image Chart
2009 12 3 12 22.6 135.6 1002 0 2 Image Chart
Japan Meteorological Agency Best Track Data | Correction Date : 2010-03-26
< Typhoon 200921 2009 Season Typhoon 201001 >

Help